createdAt,value
2023-04-25T00:00:53.455Z,70.68
2023-04-25T00:03:20.313Z,70.59
2023-04-25T00:05:46.953Z,71.16
2023-04-25T00:08:13.396Z,70.95
2023-04-25T00:10:39.796Z,70.61
2023-04-25T00:13:07.187Z,71.27
2023-04-25T00:15:33.604Z,71.56
2023-04-25T00:18:00.036Z,72.31
2023-04-25T00:20:26.419Z,71.47
2023-04-25T00:22:54.294Z,71.71
2023-04-25T00:25:20.756Z,71.97
2023-04-25T00:27:47.057Z,72.34
2023-04-25T00:30:14.004Z,71.93
2023-04-25T00:32:40.584Z,72.31
2023-04-25T00:35:07.281Z,71.93
2023-04-25T00:37:33.700Z,71.99
2023-04-25T00:40:00.177Z,71.85
2023-04-25T00:42:26.558Z,71.61
2023-04-25T00:44:54.067Z,71.73
2023-04-25T00:47:20.675Z,71.73
2023-04-25T00:49:47.255Z,71.48
2023-04-25T00:52:13.797Z,71.46
2023-04-25T00:54:40.565Z,71.96
2023-04-25T00:57:07.014Z,71.31
2023-04-25T00:59:34.475Z,72.02
2023-04-25T01:02:01.422Z,72.39
2023-04-25T01:04:28.707Z,72.24
2023-04-25T01:06:55.314Z,72.32
2023-04-25T01:09:23.069Z,71.64
2023-04-25T01:11:50.371Z,71.99
2023-04-25T01:14:17.309Z,72.51
2023-04-25T01:16:43.801Z,72.66
2023-04-25T01:19:14.150Z,72.59
2023-04-25T01:21:40.838Z,73.04
2023-04-25T01:24:07.714Z,72.83
2023-04-25T01:26:34.819Z,73.10
2023-04-25T01:29:01.638Z,72.94
2023-04-25T01:31:29.112Z,73.09
2023-04-25T01:33:55.591Z,72.95
2023-04-25T01:36:23.006Z,72.87
2023-04-25T01:38:50.042Z,72.70
2023-04-25T01:41:17.909Z,72.86
2023-04-25T01:43:45.399Z,73.39
2023-04-25T01:46:12.877Z,73.16
2023-04-25T01:48:39.497Z,73.10
2023-04-25T01:51:05.982Z,73.12
2023-04-25T01:53:32.699Z,73.30
2023-04-25T01:55:59.150Z,73.22
2023-04-25T01:58:25.522Z,73.58
2023-04-25T02:00:51.879Z,73.70
2023-04-25T02:03:18.396Z,74.16
2023-04-25T02:05:44.911Z,74.48
2023-04-25T02:08:11.298Z,74.35
2023-04-25T02:10:37.933Z,74.05
2023-04-25T02:13:06.149Z,74.33
2023-04-25T02:15:32.980Z,74.28
2023-04-25T02:18:00.984Z,74.41
2023-04-25T02:20:28.690Z,74.16
2023-04-25T02:22:55.291Z,74.35
2023-04-25T02:25:21.851Z,74.64
2023-04-25T02:27:49.138Z,74.64
2023-04-25T02:30:16.338Z,74.88
2023-04-25T02:32:42.781Z,74.57
2023-04-25T02:35:09.702Z,74.85
2023-04-25T02:37:37.283Z,74.81
2023-04-25T02:40:05.066Z,74.93
2023-04-25T02:42:31.727Z,75.51
2023-04-25T02:44:58.121Z,75.92
2023-04-25T02:47:24.669Z,75.52
2023-04-25T02:49:51.324Z,75.79
2023-04-25T02:52:17.685Z,75.43
2023-04-25T02:54:44.106Z,75.70
2023-04-25T02:57:10.457Z,75.40
2023-04-25T02:59:36.882Z,75.64
2023-04-25T03:02:03.279Z,75.42
2023-04-25T03:04:29.752Z,75.85
2023-04-25T03:06:56.510Z,75.77
2023-04-25T03:09:22.893Z,76.31
2023-04-25T03:11:49.299Z,76.24
2023-04-25T03:14:16.128Z,76.23
2023-04-25T03:16:42.538Z,76.76
2023-04-25T03:19:08.947Z,76.38
2023-04-25T03:21:36.632Z,76.47
2023-04-25T03:24:05.115Z,76.80
2023-04-25T03:26:31.643Z,76.54
2023-04-25T03:28:57.983Z,76.70
2023-04-25T03:31:24.448Z,76.55
2023-04-25T03:33:51.057Z,76.50
2023-04-25T03:36:17.739Z,76.76
2023-04-25T03:38:44.090Z,76.79
2023-04-25T03:41:10.582Z,76.29
2023-04-25T03:43:37.023Z,75.92
2023-04-25T03:46:03.514Z,75.78
2023-04-25T03:48:29.930Z,76.06
2023-04-25T03:50:56.336Z,76.18
2023-04-25T03:53:22.740Z,75.97
2023-04-25T03:55:49.150Z,76.07
2023-04-25T03:58:15.504Z,76.25
2023-04-25T04:00:41.846Z,76.46
2023-04-25T04:03:08.344Z,76.12
2023-04-25T04:05:35.010Z,76.01
2023-04-25T04:08:01.441Z,76.41
2023-04-25T04:10:27.859Z,76.34
2023-04-25T04:12:54.204Z,76.42
2023-04-25T04:15:20.691Z,76.22
2023-04-25T04:17:47.884Z,76.36
2023-04-25T04:20:14.563Z,76.04
2023-04-25T04:22:40.948Z,75.55
2023-04-25T04:25:07.943Z,75.72
2023-04-25T04:27:35.295Z,75.21
2023-04-25T04:30:02.715Z,75.37
2023-04-25T04:32:31.372Z,75.27
2023-04-25T04:34:58.154Z,74.91
2023-04-25T04:37:24.982Z,75.22
2023-04-25T04:39:51.398Z,75.07
2023-04-25T04:42:18.083Z,75.01
2023-04-25T04:44:45.619Z,74.76
2023-04-25T04:47:13.579Z,74.97
2023-04-25T04:49:39.902Z,74.38
2023-04-25T04:52:06.467Z,74.65
2023-04-25T04:54:32.853Z,74.28
2023-04-25T04:56:59.552Z,74.54
2023-04-25T04:59:25.897Z,74.30
2023-04-25T05:01:53.786Z,73.88
2023-04-25T05:04:20.186Z,74.07
2023-04-25T05:06:48.806Z,74.07
2023-04-25T05:09:16.175Z,74.13
2023-04-25T05:11:42.519Z,73.79
2023-04-25T05:14:08.868Z,73.49
2023-04-25T05:16:35.843Z,73.73
2023-04-25T05:19:02.309Z,73.31
2023-04-25T05:21:29.161Z,73.39
2023-04-25T05:23:55.505Z,73.23
2023-04-25T05:26:21.862Z,72.77
2023-04-25T05:28:48.255Z,72.75
2023-04-25T05:31:14.617Z,72.17
2023-04-25T05:33:40.983Z,72.06
2023-04-25T05:36:07.988Z,72.36
2023-04-25T05:38:35.088Z,71.72
2023-04-25T05:41:01.780Z,71.17
2023-04-25T05:43:30.538Z,71.20
2023-04-25T05:45:56.964Z,70.99
2023-04-25T05:48:23.337Z,70.83
2023-04-25T05:50:49.761Z,70.59
2023-04-25T05:53:16.217Z,69.93
2023-04-25T05:55:42.630Z,69.97
2023-04-25T05:58:09.004Z,69.85
2023-04-25T06:00:35.421Z,69.61
2023-04-25T06:03:02.350Z,69.75
2023-04-25T06:05:28.909Z,68.99
2023-04-25T06:07:55.521Z,69.07
2023-04-25T06:10:22.387Z,68.54
2023-04-25T06:12:49.064Z,68.52
2023-04-25T06:15:27.974Z,68.24
2023-04-25T06:17:55.410Z,68.23
2023-04-25T06:20:25.081Z,67.95
2023-04-25T06:22:54.807Z,67.74
2023-04-25T06:25:21.257Z,67.38
2023-04-25T06:27:47.659Z,67.74
2023-04-25T06:30:14.148Z,67.76
2023-04-25T06:32:40.764Z,67.71
2023-04-25T06:35:07.592Z,68.16
2023-04-25T06:37:34.006Z,67.70
2023-04-25T06:40:00.406Z,67.46
2023-04-25T06:42:26.736Z,68.03
2023-04-25T06:44:53.158Z,68.57
2023-04-25T06:47:19.502Z,67.66
2023-04-25T06:49:45.893Z,67.97
2023-04-25T06:52:12.244Z,69.26
2023-04-25T06:54:38.688Z,67.58
2023-04-25T06:57:05.324Z,66.57
2023-04-25T06:59:31.761Z,67.48
2023-04-25T07:01:58.148Z,66.36
2023-04-25T07:04:24.646Z,65.78
2023-04-25T07:06:51.398Z,64.61
2023-04-25T07:09:18.024Z,64.26
2023-04-25T07:11:44.509Z,63.82
2023-04-25T07:14:10.860Z,64.09
2023-04-25T07:16:37.534Z,63.66
2023-04-25T07:19:06.976Z,63.20
2023-04-25T07:21:33.763Z,62.31
2023-04-25T07:24:00.125Z,62.14
2023-04-25T07:26:26.754Z,63.62
2023-04-25T07:28:53.177Z,61.16
2023-04-25T07:31:19.623Z,59.32
2023-04-25T07:33:46.790Z,59.27
2023-04-25T07:36:13.552Z,57.96
2023-04-25T07:38:40.270Z,58.04
2023-04-25T07:41:06.682Z,57.21
2023-04-25T07:43:35.588Z,58.56
2023-04-25T07:46:02.049Z,57.93
2023-04-25T07:48:28.602Z,57.28
2023-04-25T07:50:55.747Z,56.81
2023-04-25T07:53:22.292Z,57.65
2023-04-25T07:55:48.684Z,57.94
2023-04-25T07:58:16.261Z,57.53
2023-04-25T08:00:43.157Z,57.49
2023-04-25T08:03:10.731Z,56.77
2023-04-25T08:05:37.300Z,56.86
2023-04-25T08:08:04.059Z,56.87
2023-04-25T08:10:30.476Z,55.53
2023-04-25T08:12:56.981Z,54.66
2023-04-25T08:15:23.346Z,52.17
2023-04-25T08:17:49.750Z,52.29
2023-04-25T08:20:16.412Z,51.96
2023-04-25T08:22:43.182Z,50.73
2023-04-25T08:25:09.545Z,50.36
2023-04-25T08:27:36.014Z,50.40
2023-04-25T08:30:04.142Z,51.41
2023-04-25T08:32:31.048Z,51.77
2023-04-25T08:34:57.750Z,50.54
2023-04-25T08:37:24.231Z,50.42
2023-04-25T08:39:53.329Z,48.68
2023-04-25T08:42:22.069Z,49.32
2023-04-25T08:44:49.585Z,49.45
2023-04-25T08:47:16.479Z,49.68
2023-04-25T08:49:47.086Z,49.35
2023-04-25T08:52:14.478Z,46.68
2023-04-25T08:54:47.202Z,46.73
2023-04-25T08:57:14.531Z,48.38
2023-04-25T08:59:45.278Z,48.62
2023-04-25T09:02:15.428Z,49.20
2023-04-25T09:04:46.406Z,49.23
2023-04-25T09:07:12.953Z,49.00
2023-04-25T09:09:40.300Z,47.93
2023-04-25T09:12:07.051Z,48.04
2023-04-25T09:14:33.502Z,46.73
2023-04-25T09:17:01.863Z,47.12
2023-04-25T09:19:41.060Z,45.76
2023-04-25T09:22:09.072Z,47.03
2023-04-25T09:24:38.643Z,46.17
2023-04-25T09:27:19.635Z,44.15
2023-04-25T09:29:47.397Z,42.36
2023-04-25T09:32:20.146Z,44.30
2023-04-25T09:34:54.150Z,41.21
2023-04-25T09:37:23.511Z,41.63
2023-04-25T09:39:53.654Z,41.55
2023-04-25T09:42:23.384Z,41.70
2023-04-25T09:44:49.768Z,42.29
2023-04-25T09:47:18.601Z,43.94
2023-04-25T09:49:45.247Z,44.23
2023-04-25T09:52:17.747Z,43.87
2023-04-25T09:54:45.907Z,44.43
2023-04-25T09:57:15.284Z,44.65
2023-04-25T09:59:47.461Z,44.11
2023-04-25T10:02:16.488Z,42.70
2023-04-25T10:04:45.979Z,43.83
2023-04-25T10:07:12.957Z,43.77
2023-04-25T10:09:40.831Z,42.09
2023-04-25T10:12:08.750Z,40.25
2023-04-25T10:14:36.002Z,40.18
2023-04-25T10:17:02.882Z,41.04
2023-04-25T10:19:30.549Z,41.08
2023-04-25T10:22:05.366Z,41.62
2023-04-25T10:24:34.032Z,42.08
2023-04-25T10:27:00.775Z,43.10
2023-04-25T10:29:27.476Z,44.58
2023-04-25T10:31:54.337Z,47.27
2023-04-25T10:34:25.977Z,45.18
2023-04-25T10:36:53.205Z,45.97
2023-04-25T10:39:28.330Z,48.18
2023-04-25T10:41:57.746Z,45.76
2023-04-25T10:44:27.156Z,39.68
2023-04-25T10:46:55.635Z,38.45
2023-04-25T10:49:36.139Z,38.87
2023-04-25T10:52:28.639Z,39.01
2023-04-25T10:54:57.163Z,32.84
2023-04-25T10:57:47.254Z,29.97
2023-04-25T11:00:19.471Z,28.80
2023-04-25T11:02:48.745Z,28.13
2023-04-25T11:05:36.397Z,27.79
2023-04-25T11:08:08.438Z,26.57
2023-04-25T11:10:36.473Z,28.15
2023-04-25T11:13:03.693Z,29.43
2023-04-25T11:15:30.582Z,30.86
2023-04-25T11:17:56.945Z,33.37
2023-04-25T11:20:27.003Z,35.76
2023-04-25T11:22:53.535Z,36.27
2023-04-25T11:25:21.061Z,35.87
2023-04-25T11:27:54.952Z,37.87
2023-04-25T11:30:22.333Z,38.43
2023-04-25T11:32:49.247Z,39.33
2023-04-25T11:35:16.447Z,39.57
2023-04-25T11:37:44.862Z,40.85
2023-04-25T11:40:14.415Z,43.52
2023-04-25T11:42:45.291Z,45.26
2023-04-25T11:45:12.426Z,45.70
2023-04-25T11:47:38.916Z,46.01
2023-04-25T11:50:08.430Z,46.43
2023-04-25T11:52:43.988Z,44.72
2023-04-25T11:55:14.283Z,44.59
2023-04-25T11:57:42.066Z,45.27
2023-04-25T12:00:17.493Z,46.69
2023-04-25T12:02:47.301Z,39.42
2023-04-25T12:05:31.337Z,38.45
2023-04-25T12:08:09.973Z,35.32
2023-04-25T12:10:41.792Z,32.79
2023-04-25T12:13:21.260Z,34.55
2023-04-25T12:15:47.832Z,33.36
2023-04-25T12:18:14.425Z,36.09
2023-04-25T12:20:42.562Z,29.59
2023-04-25T12:23:09.195Z,29.86
2023-04-25T12:25:40.963Z,29.91
2023-04-25T12:28:21.397Z,29.32
2023-04-25T12:30:58.919Z,28.38
2023-04-25T12:33:27.701Z,27.72
2023-04-25T12:35:54.931Z,29.90
2023-04-25T12:38:30.256Z,30.61
2023-04-25T12:40:57.247Z,29.88
2023-04-25T12:43:24.038Z,30.62
2023-04-25T12:45:55.273Z,30.90
2023-04-25T12:48:22.769Z,31.17
2023-04-25T12:50:51.555Z,34.56
2023-04-25T12:53:19.812Z,32.27
2023-04-25T12:55:49.162Z,32.63
2023-04-25T12:58:16.456Z,29.87
2023-04-25T13:00:43.092Z,30.69
2023-04-25T13:03:11.751Z,31.83
2023-04-25T13:05:39.362Z,34.69
2023-04-25T13:08:07.424Z,37.12
2023-04-25T13:10:40.606Z,37.87
2023-04-25T13:13:07.004Z,40.50
2023-04-25T13:15:33.476Z,39.13
2023-04-25T13:17:59.918Z,39.40
2023-04-25T13:20:26.317Z,39.93
2023-04-25T13:22:52.897Z,40.57
2023-04-25T13:25:19.792Z,40.42
2023-04-25T13:27:47.321Z,40.44
2023-04-25T13:30:14.060Z,40.91
2023-04-25T13:32:41.002Z,40.93
2023-04-25T13:35:12.535Z,40.48
2023-04-25T13:37:39.636Z,41.19
2023-04-25T13:40:11.057Z,39.00
2023-04-25T13:42:38.381Z,40.12
2023-04-25T13:45:05.289Z,38.11
2023-04-25T13:47:31.953Z,35.67
2023-04-25T13:49:58.464Z,36.35
2023-04-25T13:52:25.261Z,34.69
2023-04-25T13:54:52.137Z,34.79
2023-04-25T13:57:19.175Z,34.11
2023-04-25T13:59:45.784Z,33.73
2023-04-25T14:02:12.184Z,34.09
2023-04-25T14:04:38.817Z,32.17
2023-04-25T14:07:05.930Z,34.68
2023-04-25T14:09:32.426Z,33.39
2023-04-25T14:11:58.869Z,34.15
2023-04-25T14:14:25.543Z,33.86
2023-04-25T14:16:54.693Z,32.36
2023-04-25T14:19:22.497Z,33.51
2023-04-25T14:21:49.025Z,32.42
2023-04-25T14:24:17.357Z,33.60
2023-04-25T14:26:44.687Z,33.45
2023-04-25T14:29:12.826Z,33.78
2023-04-25T14:31:41.299Z,35.75
2023-04-25T14:34:08.099Z,37.69
2023-04-25T14:36:35.204Z,36.83
2023-04-25T14:39:01.892Z,38.16
2023-04-25T14:41:28.746Z,36.96
2023-04-25T14:43:56.497Z,36.56
2023-04-25T14:46:24.365Z,33.96
2023-04-25T14:48:51.204Z,35.31
2023-04-25T14:51:17.586Z,35.71
2023-04-25T14:53:44.053Z,34.37
2023-04-25T14:56:10.704Z,33.65
2023-04-25T14:58:37.168Z,31.46
2023-04-25T15:01:03.748Z,31.02
2023-04-25T15:03:30.419Z,29.37
2023-04-25T15:05:56.911Z,29.90
2023-04-25T15:08:23.308Z,29.11
2023-04-25T15:10:50.023Z,31.18
2023-04-25T15:13:18.230Z,28.38
2023-04-25T15:15:44.692Z,30.94
2023-04-25T15:18:12.782Z,33.65
2023-04-25T15:20:39.321Z,33.56
2023-04-25T15:23:05.994Z,34.15
2023-04-25T15:25:34.132Z,33.10
2023-04-25T15:28:01.012Z,35.30
2023-04-25T15:30:34.131Z,32.96
2023-04-25T15:33:00.838Z,32.49
2023-04-25T15:35:28.602Z,33.27
2023-04-25T15:37:55.044Z,34.17
2023-04-25T15:40:22.138Z,33.27
2023-04-25T15:42:51.672Z,32.06
2023-04-25T15:45:24.138Z,33.29
2023-04-25T15:47:55.378Z,32.35
2023-04-25T15:50:22.195Z,33.43
2023-04-25T15:52:49.796Z,31.78
2023-04-25T15:55:17.411Z,33.97
2023-04-25T15:57:43.967Z,36.04
2023-04-25T16:00:13.204Z,36.22
2023-04-25T16:02:41.180Z,36.95
2023-04-25T16:05:09.105Z,35.99
2023-04-25T16:07:35.718Z,36.81
2023-04-25T16:10:02.278Z,36.96
2023-04-25T16:12:30.990Z,35.69
2023-04-25T16:14:58.157Z,36.00
2023-04-25T16:17:25.399Z,35.60
2023-04-25T16:19:51.897Z,36.25
2023-04-25T16:22:18.476Z,35.29
2023-04-25T16:24:45.531Z,35.89
2023-04-25T16:27:12.102Z,36.02
2023-04-25T16:29:42.267Z,35.18
2023-04-25T16:32:08.656Z,35.06
2023-04-25T16:34:35.876Z,34.99
2023-04-25T16:37:02.338Z,36.03
2023-04-25T16:39:28.725Z,36.98
2023-04-25T16:41:55.294Z,36.61
2023-04-25T16:44:21.777Z,35.73
2023-04-25T16:46:48.383Z,35.09
2023-04-25T16:49:14.935Z,35.96
2023-04-25T16:51:41.343Z,35.86
2023-04-25T16:54:07.967Z,36.97
2023-04-25T16:56:34.423Z,36.71
2023-04-25T16:59:00.932Z,36.22
2023-04-25T17:01:28.539Z,38.19
2023-04-25T17:03:55.221Z,36.84
2023-04-25T17:06:21.717Z,37.36
2023-04-25T17:08:48.087Z,37.17
2023-04-25T17:11:14.497Z,37.09
2023-04-25T17:13:43.312Z,38.23
2023-04-25T17:16:11.765Z,37.29
2023-04-25T17:18:38.605Z,36.63
2023-04-25T17:21:06.071Z,37.19
2023-04-25T17:23:32.638Z,37.84
2023-04-25T17:25:59.427Z,37.42
2023-04-25T17:28:25.815Z,37.74
2023-04-25T17:30:52.328Z,36.72
2023-04-25T17:33:19.033Z,38.10
2023-04-25T17:35:46.125Z,37.62
2023-04-25T17:38:13.719Z,38.59
2023-04-25T17:40:40.099Z,39.25
2023-04-25T17:43:07.049Z,39.09
2023-04-25T17:45:34.697Z,38.96
2023-04-25T17:48:02.322Z,39.30
2023-04-25T17:50:28.771Z,39.50
2023-04-25T17:52:55.497Z,40.91
2023-04-25T17:55:21.842Z,40.54
2023-04-25T17:57:48.373Z,40.01
2023-04-25T18:00:15.210Z,39.43
2023-04-25T18:02:41.639Z,40.38
2023-04-25T18:05:11.482Z,40.15
2023-04-25T18:07:38.295Z,40.63
2023-04-25T18:10:10.137Z,40.50
2023-04-25T18:12:36.965Z,41.88
2023-04-25T18:15:06.734Z,40.30
2023-04-25T18:17:39.631Z,40.50
2023-04-25T18:20:17.238Z,41.30
2023-04-25T18:22:45.028Z,41.13
2023-04-25T18:25:13.550Z,42.19
2023-04-25T18:27:41.106Z,41.74
2023-04-25T18:30:10.587Z,43.45
2023-04-25T18:32:37.830Z,44.29
2023-04-25T18:35:04.858Z,44.63
2023-04-25T18:37:31.297Z,44.58
2023-04-25T18:39:58.453Z,45.26
2023-04-25T18:42:24.907Z,44.85
2023-04-25T18:44:51.266Z,44.28
2023-04-25T18:47:17.818Z,44.22
2023-04-25T18:49:45.233Z,43.81
2023-04-25T18:52:12.738Z,44.23
2023-04-25T18:54:39.252Z,44.54
2023-04-25T18:57:06.423Z,44.80
2023-04-25T18:59:33.557Z,44.19
2023-04-25T19:02:05.093Z,43.58
2023-04-25T19:04:32.293Z,43.63
2023-04-25T19:06:59.527Z,43.81
2023-04-25T19:09:25.924Z,44.15
2023-04-25T19:11:52.365Z,44.30
2023-04-25T19:14:18.852Z,44.21
2023-04-25T19:16:45.488Z,43.49
2023-04-25T19:19:12.380Z,43.98
2023-04-25T19:21:38.852Z,45.24
2023-04-25T19:24:06.942Z,45.83
2023-04-25T19:26:33.426Z,45.13
2023-04-25T19:29:14.531Z,46.14
2023-04-25T19:31:44.168Z,45.27
2023-04-25T19:34:11.308Z,45.06
2023-04-25T19:36:40.146Z,44.31
2023-04-25T19:39:07.517Z,45.01
2023-04-25T19:41:36.217Z,45.74
2023-04-25T19:44:07.269Z,45.44
2023-04-25T19:46:34.970Z,44.64
2023-04-25T19:49:01.547Z,46.15
2023-04-25T19:51:28.926Z,47.51
2023-04-25T19:53:55.585Z,46.21
2023-04-25T19:56:23.279Z,47.18
2023-04-25T19:58:50.737Z,47.77
2023-04-25T20:01:18.175Z,47.12
2023-04-25T20:03:45.287Z,46.59
2023-04-25T20:06:11.824Z,46.72
2023-04-25T20:08:38.485Z,47.22
2023-04-25T20:11:04.950Z,46.14
2023-04-25T20:13:32.613Z,47.39
2023-04-25T20:16:00.656Z,48.55
2023-04-25T20:18:29.458Z,48.22
2023-04-25T20:20:56.449Z,48.38
2023-04-25T20:23:22.835Z,48.46
2023-04-25T20:25:49.173Z,48.13
2023-04-25T20:28:15.855Z,47.32
2023-04-25T20:30:42.337Z,48.17
2023-04-25T20:33:09.294Z,47.99
2023-04-25T20:35:36.846Z,47.81
2023-04-25T20:38:03.281Z,48.01
2023-04-25T20:40:29.761Z,49.13
2023-04-25T20:42:56.457Z,49.10
2023-04-25T20:45:24.235Z,49.82
2023-04-25T20:47:50.746Z,50.49
2023-04-25T20:50:17.391Z,50.88
2023-04-25T20:52:44.419Z,50.52
2023-04-25T20:55:11.800Z,50.82
2023-04-25T20:57:38.266Z,51.19
2023-04-25T21:00:15.360Z,51.40
2023-04-25T21:02:42.173Z,53.70
2023-04-25T21:05:09.540Z,53.15
2023-04-25T21:07:36.552Z,54.36
2023-04-25T21:10:03.060Z,54.38
2023-04-25T21:12:29.514Z,54.17
2023-04-25T21:14:56.318Z,53.31
2023-04-25T21:17:22.937Z,52.98
2023-04-25T21:19:49.434Z,54.16
2023-04-25T21:22:15.814Z,54.07
2023-04-25T21:24:42.133Z,53.54
2023-04-25T21:27:08.816Z,53.46
2023-04-25T21:29:35.284Z,53.72
2023-04-25T21:32:02.103Z,53.01
2023-04-25T21:34:28.468Z,54.02
2023-04-25T21:36:54.828Z,54.05
2023-04-25T21:39:21.197Z,53.68
2023-04-25T21:41:48.282Z,52.78
2023-04-25T21:44:15.531Z,53.49
2023-04-25T21:46:42.848Z,53.98
2023-04-25T21:49:09.312Z,53.80
2023-04-25T21:51:35.967Z,53.03
2023-04-25T21:54:05.189Z,54.82
2023-04-25T21:56:32.694Z,55.78
2023-04-25T21:58:59.049Z,56.12
2023-04-25T22:01:26.756Z,58.13
2023-04-25T22:03:53.602Z,57.89
2023-04-25T22:06:20.111Z,57.80
2023-04-25T22:08:46.508Z,56.90
2023-04-25T22:11:13.603Z,55.61
2023-04-25T22:13:39.968Z,55.86
2023-04-25T22:16:06.549Z,55.66
2023-04-25T22:18:32.977Z,55.92
2023-04-25T22:20:59.390Z,56.05
2023-04-25T22:23:25.749Z,56.59
2023-04-25T22:25:52.113Z,55.76
2023-04-25T22:28:18.637Z,56.55
2023-04-25T22:30:45.052Z,57.05
2023-04-25T22:33:11.644Z,56.98
2023-04-25T22:35:38.051Z,57.12
2023-04-25T22:38:04.439Z,56.35
2023-04-25T22:40:30.936Z,57.30
2023-04-25T22:42:57.817Z,57.63
2023-04-25T22:45:24.422Z,57.82
2023-04-25T22:47:50.857Z,57.24
2023-04-25T22:50:17.760Z,57.56
2023-04-25T22:52:44.140Z,57.24
2023-04-25T22:55:12.340Z,57.74
2023-04-25T22:57:39.500Z,57.62
2023-04-25T23:00:19.939Z,57.87
2023-04-25T23:02:47.221Z,57.61
2023-04-25T23:05:14.747Z,57.36
2023-04-25T23:07:42.176Z,57.55
2023-04-25T23:10:08.936Z,56.94
2023-04-25T23:12:35.471Z,57.42
2023-04-25T23:15:04.202Z,57.83
2023-04-25T23:17:30.744Z,57.74
2023-04-25T23:19:57.605Z,58.17
2023-04-25T23:22:24.525Z,58.08
2023-04-25T23:24:51.174Z,58.50
2023-04-25T23:27:17.693Z,59.95
2023-04-25T23:29:44.135Z,60.16
2023-04-25T23:32:10.476Z,60.88
2023-04-25T23:34:37.483Z,60.94
2023-04-25T23:37:04.436Z,59.91
2023-04-25T23:39:31.058Z,59.57
2023-04-25T23:41:57.684Z,59.98
2023-04-25T23:44:24.006Z,60.47
2023-04-25T23:46:50.418Z,60.62
2023-04-25T23:49:16.847Z,59.46
2023-04-25T23:51:43.265Z,59.51
2023-04-25T23:54:09.639Z,58.78
2023-04-25T23:56:36.066Z,60.14
2023-04-25T23:59:02.467Z,60.14
